Time;durP1;ratioP1;P1;durP2;ratioP2;P2;SDS_P1;SDS_P2;PMS_P1;PMS_P2;Temp;Humidity;BMP_temperature;BMP_pressure;BME280_temperature;BME280_humidity;BME280_pressure;Samples;Min_cycle;Max_cycle;Signal;HPM_P1;HPM_P2
2024/03/30 00:02:26;0.00;0.00;0.62;0.00;0.00;0.62;2.57;1.67;;;23.20;25.60;;;;;;2228406;62;20364;-65
2024/03/30 00:04:53;0.00;0.00;0.62;0.00;0.00;0.62;2.70;1.43;;;23.20;25.60;;;;;;2232080;62;20420;-65
2024/03/30 00:07:19;0.00;0.00;0.62;0.00;0.00;0.62;2.43;1.80;;;23.20;25.60;;;;;;2231561;62;20476;-65
2024/03/30 00:09:47;0.00;0.00;0.62;0.00;0.00;0.62;1.90;1.20;;;23.20;25.60;;;;;;2231450;62;20357;-65
2024/03/30 00:12:13;0.00;0.00;0.62;0.00;0.00;0.62;2.70;1.77;;;23.10;25.50;;;;;;2232295;62;20365;-65
2024/03/30 00:14:41;0.00;0.00;0.62;0.00;0.00;0.62;2.07;1.37;;;23.20;25.60;;;;;;2231599;62;20376;-65
2024/03/30 00:17:08;0.00;0.00;0.62;0.00;0.00;0.62;2.60;1.47;;;23.20;25.60;;;;;;2231848;62;20384;-65
2024/03/30 00:19:36;0.00;0.00;0.62;0.00;0.00;0.62;2.37;1.60;;;23.20;25.60;;;;;;2232106;62;20368;-65
2024/03/30 00:22:02;0.00;0.00;0.62;0.00;0.00;0.62;2.03;1.20;;;23.20;25.60;;;;;;2231635;62;20364;-65
2024/03/30 00:24:28;0.00;0.00;0.62;0.00;0.00;0.62;2.17;1.70;;;23.10;25.60;;;;;;2232110;62;20363;-65
2024/03/30 00:26:55;0.00;0.00;0.62;0.00;0.00;0.62;2.00;1.43;;;23.20;25.60;;;;;;2231146;62;20463;-66
2024/03/30 00:29:21;0.00;0.00;0.62;0.00;0.00;0.62;2.20;1.57;;;23.20;25.70;;;;;;2231666;62;20360;-65
2024/03/30 00:31:48;0.00;0.00;0.62;0.00;0.00;0.62;3.47;1.80;;;23.20;25.60;;;;;;2231986;62;20677;-66
2024/03/30 00:34:14;0.00;0.00;0.62;0.00;0.00;0.62;2.70;1.60;;;23.20;25.60;;;;;;2231883;62;20954;-65
2024/03/30 00:36:40;0.00;0.00;0.62;0.00;0.00;0.62;2.00;1.30;;;23.20;25.60;;;;;;2231481;62;20376;-66
2024/03/30 00:39:07;0.00;0.00;0.62;0.00;0.00;0.62;1.80;1.30;;;23.20;25.60;;;;;;2232064;62;20360;-66
2024/03/30 00:41:34;0.00;0.00;0.62;0.00;0.00;0.62;1.90;1.17;;;23.20;25.70;;;;;;2230402;62;20726;-66
2024/03/30 00:44:00;0.00;0.00;0.62;0.00;0.00;0.62;2.40;1.47;;;23.20;25.60;;;;;;2234156;62;20413;-66
2024/03/30 00:46:27;0.00;0.00;0.62;0.00;0.00;0.62;2.63;1.57;;;23.10;25.60;;;;;;2231866;62;20357;-66
2024/03/30 00:48:56;0.00;0.00;0.62;0.00;0.00;0.62;2.77;1.50;;;23.20;25.70;;;;;;2231909;62;20376;-66
2024/03/30 00:51:22;0.00;0.00;0.62;0.00;0.00;0.62;2.50;1.60;;;23.20;25.70;;;;;;2231425;62;20364;-66
2024/03/30 00:53:48;0.00;0.00;0.62;0.00;0.00;0.62;2.43;1.50;;;23.20;25.70;;;;;;2232008;62;20376;-66
2024/03/30 00:56:14;0.00;0.00;0.62;0.00;0.00;0.62;2.10;1.40;;;23.20;25.70;;;;;;2231441;62;20395;-66
2024/03/30 00:58:40;0.00;0.00;0.62;0.00;0.00;0.62;7.57;2.10;;;23.20;25.70;;;;;;2231653;62;20789;-66
2024/03/30 01:01:09;0.00;0.00;0.62;0.00;0.00;0.62;3.00;2.27;;;23.20;25.70;;;;;;2231906;62;20405;-66
2024/03/30 01:03:35;0.00;0.00;0.62;0.00;0.00;0.62;1.93;1.60;;;23.10;25.60;;;;;;2231911;62;20415;-65
2024/03/30 01:06:03;0.00;0.00;0.62;0.00;0.00;0.62;1.87;1.20;;;23.20;25.70;;;;;;2231371;62;20361;-66
2024/03/30 01:08:29;0.00;0.00;0.62;0.00;0.00;0.62;2.60;1.50;;;23.20;25.70;;;;;;2231684;62;20392;-66
2024/03/30 01:11:00;0.00;0.00;0.62;0.00;0.00;0.62;3.00;1.57;;;23.20;25.70;;;;;;2231766;62;20850;-65
2024/03/30 01:13:27;0.00;0.00;0.62;0.00;0.00;0.62;2.60;1.43;;;23.20;25.70;;;;;;2231716;62;20368;-65
2024/03/30 01:15:54;0.00;0.00;0.62;0.00;0.00;0.62;2.50;1.43;;;23.20;25.70;;;;;;2231865;62;20374;-65
2024/03/30 01:18:21;0.00;0.00;0.62;0.00;0.00;0.62;2.00;1.37;;;23.20;25.70;;;;;;2231889;62;20475;-66
2024/03/30 01:20:51;0.00;0.00;0.62;0.00;0.00;0.62;2.17;1.40;;;23.20;25.70;;;;;;2231504;62;20369;-65
2024/03/30 01:23:21;0.00;0.00;0.62;0.00;0.00;0.62;1.80;1.40;;;23.20;25.70;;;;;;2231824;62;20378;-65
2024/03/30 01:25:49;0.00;0.00;0.62;0.00;0.00;0.62;2.77;1.80;;;23.10;25.70;;;;;;2231690;62;20367;-66
2024/03/30 01:28:16;0.00;0.00;0.62;0.00;0.00;0.62;2.00;1.30;;;23.20;25.70;;;;;;2231514;62;20868;-65
2024/03/30 01:30:43;0.00;0.00;0.62;0.00;0.00;0.62;2.40;1.40;;;23.20;25.70;;;;;;2232168;62;20372;-66
2024/03/30 01:33:10;0.00;0.00;0.62;0.00;0.00;0.62;1.93;1.23;;;23.20;25.70;;;;;;2231974;62;20367;-66
2024/03/30 01:35:36;0.00;0.00;0.62;0.00;0.00;0.62;1.80;1.20;;;23.20;25.80;;;;;;2231378;62;20929;-66
2024/03/30 01:38:02;0.00;0.00;0.62;0.00;0.00;0.62;2.20;1.40;;;23.20;25.70;;;;;;2231654;62;20422;-66
2024/03/30 01:40:32;0.00;0.00;0.62;0.00;0.00;0.62;2.00;1.30;;;23.20;25.80;;;;;;2231807;62;20396;-65
2024/03/30 01:43:01;0.00;0.00;0.62;0.00;0.00;0.62;2.17;1.33;;;23.20;25.80;;;;;;2231645;62;20382;-66
2024/03/30 01:45:33;0.00;0.00;0.62;0.00;0.00;0.62;3.30;1.50;;;23.20;25.80;;;;;;2231669;62;20359;-66
2024/03/30 01:48:00;0.00;0.00;0.62;0.00;0.00;0.62;1.80;1.20;;;23.10;25.70;;;;;;2231627;62;20787;-65
2024/03/30 01:50:26;0.00;0.00;0.62;0.00;0.00;0.62;1.83;1.33;;;23.20;25.80;;;;;;2231335;62;20390;-65
2024/03/30 01:52:52;0.00;0.00;0.62;0.00;0.00;0.62;2.20;1.50;;;23.20;25.80;;;;;;2231773;62;20368;-66
2024/03/30 01:55:18;0.00;0.00;0.62;0.00;0.00;0.62;2.33;1.40;;;23.20;25.80;;;;;;2231472;62;20462;-65
2024/03/30 01:57:46;0.00;0.00;0.62;0.00;0.00;0.62;2.40;1.77;;;23.20;26.30;;;;;;2231390;62;20926;-66
2024/03/30 02:00:13;0.00;0.00;0.62;0.00;0.00;0.62;3.90;1.63;;;23.20;25.80;;;;;;2231849;62;20447;-65
2024/03/30 02:02:40;0.00;0.00;0.62;0.00;0.00;0.62;2.40;1.67;;;23.20;26.40;;;;;;2232052;62;20395;-65
2024/03/30 02:05:06;0.00;0.00;0.62;0.00;0.00;0.62;2.30;1.50;;;23.20;25.80;;;;;;2232140;62;20360;-65
2024/03/30 02:07:33;0.00;0.00;0.62;0.00;0.00;0.62;2.20;1.60;;;23.20;25.80;;;;;;2232144;62;20435;-65
2024/03/30 02:09:59;0.00;0.00;0.62;0.00;0.00;0.62;2.03;1.40;;;23.20;25.90;;;;;;2232483;62;20362;-65
2024/03/30 02:12:26;0.00;0.00;0.62;0.00;0.00;0.62;2.27;1.37;;;23.20;25.80;;;;;;2232098;62;20380;-65
2024/03/30 02:14:53;0.00;0.00;0.62;0.00;0.00;0.62;2.10;1.43;;;23.20;25.80;;;;;;2232433;62;20407;-66
2024/03/30 02:17:20;0.00;0.00;0.62;0.00;0.00;0.62;2.27;1.23;;;23.20;25.90;;;;;;2232064;62;20387;-65
2024/03/30 02:19:46;0.00;0.00;0.62;0.00;0.00;0.62;2.80;1.57;;;23.10;26.30;;;;;;2231507;62;20367;-65
2024/03/30 02:22:17;0.00;0.00;0.62;0.00;0.00;0.62;1.87;1.20;;;23.20;25.80;;;;;;2232566;62;20373;-65
2024/03/30 02:24:44;0.00;0.00;0.62;0.00;0.00;0.62;2.43;1.50;;;23.20;25.90;;;;;;2232587;62;20360;-65
2024/03/30 02:27:11;0.00;0.00;0.62;0.00;0.00;0.62;2.40;1.43;;;23.20;25.90;;;;;;2229501;62;20658;-65
2024/03/30 02:29:38;0.00;0.00;0.62;0.00;0.00;0.62;2.40;1.77;;;23.10;25.80;;;;;;2236244;62;20352;-65
2024/03/30 02:32:06;0.00;0.00;0.62;0.00;0.00;0.62;2.47;1.33;;;23.20;25.90;;;;;;2236108;62;20883;-65
2024/03/30 02:34:33;0.00;0.00;0.62;0.00;0.00;0.62;2.97;1.50;;;23.20;25.90;;;;;;2235386;62;20387;-65
2024/03/30 02:36:59;0.00;0.00;0.62;0.00;0.00;0.62;3.20;1.57;;;23.20;25.90;;;;;;2236047;62;20382;-65
2024/03/30 02:39:26;0.00;0.00;0.62;0.00;0.00;0.62;2.40;1.57;;;23.20;25.90;;;;;;2235646;62;20359;-65
2024/03/30 02:41:53;0.00;0.00;0.62;0.00;0.00;0.62;2.37;1.50;;;23.10;25.80;;;;;;2235498;62;20378;-65
2024/03/30 02:44:19;0.00;0.00;0.62;0.00;0.00;0.62;2.37;1.60;;;23.20;25.90;;;;;;2232126;62;20909;-65
2024/03/30 02:46:47;0.00;0.00;0.62;0.00;0.00;0.62;2.30;1.47;;;23.20;25.90;;;;;;2232029;62;20846;-65
2024/03/30 02:49:14;0.00;0.00;0.62;0.00;0.00;0.62;2.27;1.70;;;23.20;25.90;;;;;;2232026;62;20577;-65
2024/03/30 02:51:40;0.00;0.00;0.62;0.00;0.00;0.62;2.17;1.40;;;23.20;25.90;;;;;;2232401;62;20556;-65
2024/03/30 02:54:06;0.00;0.00;0.62;0.00;0.00;0.62;2.53;1.50;;;23.20;25.90;;;;;;2232306;62;20387;-65
2024/03/30 02:56:33;0.00;0.00;0.62;0.00;0.00;0.62;2.03;1.23;;;23.20;25.90;;;;;;2231791;62;20383;-66
2024/03/30 02:59:00;0.00;0.00;0.62;0.00;0.00;0.62;2.13;1.63;;;23.20;25.90;;;;;;2231205;62;20378;-66
2024/03/30 03:01:27;0.00;0.00;0.62;0.00;0.00;0.62;2.40;1.60;;;23.20;25.90;;;;;;2232265;62;20444;-66
2024/03/30 03:03:53;0.00;0.00;0.62;0.00;0.00;0.62;2.20;1.43;;;23.20;25.90;;;;;;2232075;62;20368;-66
2024/03/30 03:06:19;0.00;0.00;0.62;0.00;0.00;0.62;2.90;1.83;;;23.10;25.80;;;;;;2232091;62;20419;-64
2024/03/30 03:08:45;0.00;0.00;0.62;0.00;0.00;0.62;2.20;1.43;;;23.20;25.90;;;;;;2231367;62;20382;-65
2024/03/30 03:11:11;0.00;0.00;0.62;0.00;0.00;0.62;2.30;1.53;;;23.20;25.90;;;;;;2232363;62;20353;-65
2024/03/30 03:13:38;0.00;0.00;0.62;0.00;0.00;0.62;2.83;1.40;;;23.20;25.90;;;;;;2231959;62;20895;-65
2024/03/30 03:16:06;0.00;0.00;0.62;0.00;0.00;0.62;2.87;1.60;;;23.20;25.90;;;;;;2231690;62;20831;-65
2024/03/30 03:18:32;0.00;0.00;0.62;0.00;0.00;0.62;2.30;1.63;;;23.20;25.90;;;;;;2232323;62;20801;-65
2024/03/30 03:20:58;0.00;0.00;0.62;0.00;0.00;0.62;2.43;1.87;;;23.20;25.90;;;;;;2231998;62;20357;-65
2024/03/30 03:23:25;0.00;0.00;0.62;0.00;0.00;0.62;2.77;1.63;;;23.20;25.90;;;;;;2231875;62;20356;-66
2024/03/30 03:25:51;0.00;0.00;0.62;0.00;0.00;0.62;2.83;1.57;;;23.20;25.90;;;;;;2232243;62;20356;-66
2024/03/30 03:28:18;0.00;0.00;0.62;0.00;0.00;0.62;2.73;1.60;;;23.20;25.90;;;;;;2232203;62;20392;-66
2024/03/30 03:30:45;0.00;0.00;0.62;0.00;0.00;0.62;2.20;1.40;;;23.20;25.90;;;;;;2232070;62;20368;-65
2024/03/30 03:33:13;0.00;0.00;0.62;0.00;0.00;0.62;2.10;1.57;;;23.20;26.00;;;;;;2228322;62;20820;-65
2024/03/30 03:35:39;0.00;0.00;0.62;0.00;0.00;0.62;2.80;1.60;;;23.20;25.90;;;;;;2228125;62;20397;-65
2024/03/30 03:38:05;0.00;0.00;0.62;0.00;0.00;0.62;2.40;1.50;;;23.20;25.90;;;;;;2227994;62;20849;-65
2024/03/30 03:40:32;0.00;0.00;0.62;0.00;0.00;0.62;2.10;1.43;;;23.20;25.90;;;;;;2232083;62;20497;-65
2024/03/30 03:42:58;0.00;0.00;0.62;0.00;0.00;0.62;2.50;1.77;;;23.20;26.10;;;;;;2232330;62;20360;-65
2024/03/30 03:45:24;0.00;0.00;0.62;0.00;0.00;0.62;2.73;1.70;;;23.20;25.90;;;;;;2231910;62;20372;-65
2024/03/30 03:47:50;0.00;0.00;0.62;0.00;0.00;0.62;2.10;1.50;;;23.20;25.90;;;;;;2231803;62;20387;-65
2024/03/30 03:50:18;0.00;0.00;0.62;0.00;0.00;0.62;2.10;1.60;;;23.20;25.90;;;;;;2232059;62;20833;-65
2024/03/30 03:52:44;0.00;0.00;0.62;0.00;0.00;0.62;2.47;1.80;;;23.20;25.90;;;;;;2231935;62;20372;-65
2024/03/30 03:55:10;0.00;0.00;0.62;0.00;0.00;0.62;2.50;1.73;;;23.20;26.20;;;;;;2231968;62;20384;-65
2024/03/30 03:57:36;0.00;0.00;0.62;0.00;0.00;0.62;2.87;1.80;;;23.20;25.90;;;;;;2232120;62;20415;-65
2024/03/30 04:00:03;0.00;0.00;0.62;0.00;0.00;0.62;2.60;1.70;;;23.20;25.90;;;;;;2231962;62;20920;-65
2024/03/30 04:02:37;0.00;0.00;0.62;0.00;0.00;0.62;2.73;1.67;;;23.20;25.90;;;;;;2231786;62;20367;-65
2024/03/30 04:05:04;0.00;0.00;0.62;0.00;0.00;0.62;2.23;1.60;;;23.20;25.90;;;;;;2232156;62;20359;-65
2024/03/30 04:07:31;0.00;0.00;0.62;0.00;0.00;0.62;2.50;1.83;;;23.20;25.90;;;;;;2231710;62;20376;-65
2024/03/30 04:09:58;0.00;0.00;0.62;0.00;0.00;0.62;3.73;2.40;;;23.10;25.90;;;;;;2231830;62;20800;-65
2024/03/30 04:12:24;0.00;0.00;0.62;0.00;0.00;0.62;2.83;2.00;;;23.20;25.90;;;;;;2232231;62;20367;-65
2024/03/30 04:14:50;0.00;0.00;0.62;0.00;0.00;0.62;2.37;1.77;;;23.10;25.90;;;;;;2231835;62;20376;-65
2024/03/30 04:17:16;0.00;0.00;0.62;0.00;0.00;0.62;2.80;2.27;;;23.10;25.90;;;;;;2231697;62;20895;-65
2024/03/30 04:19:42;0.00;0.00;0.62;0.00;0.00;0.62;2.57;1.60;;;23.20;25.90;;;;;;2232216;62;20826;-64
2024/03/30 04:22:10;0.00;0.00;0.62;0.00;0.00;0.62;3.13;2.30;;;23.20;25.90;;;;;;2231783;62;20875;-65
2024/03/30 04:24:37;0.00;0.00;0.62;0.00;0.00;0.62;2.80;1.83;;;23.20;26.00;;;;;;2231903;62;20357;-65
2024/03/30 04:27:04;0.00;0.00;0.62;0.00;0.00;0.62;2.90;2.23;;;23.20;26.00;;;;;;2232087;62;20408;-65
2024/03/30 04:29:30;0.00;0.00;0.62;0.00;0.00;0.62;3.47;2.50;;;23.10;25.90;;;;;;2231941;62;20647;-65
2024/03/30 04:31:56;0.00;0.00;0.62;0.00;0.00;0.62;3.37;2.37;;;23.20;26.00;;;;;;2231657;62;20936;-65
2024/03/30 04:34:23;0.00;0.00;0.62;0.00;0.00;0.62;2.93;2.20;;;23.20;26.00;;;;;;2232196;62;20394;-65
2024/03/30 04:36:49;0.00;0.00;0.62;0.00;0.00;0.62;2.50;1.80;;;23.20;26.00;;;;;;2231642;62;20953;-65
2024/03/30 04:39:15;0.00;0.00;0.62;0.00;0.00;0.62;3.10;2.53;;;23.20;26.00;;;;;;2231103;62;20454;-65
2024/03/30 04:41:42;0.00;0.00;0.62;0.00;0.00;0.62;3.10;2.30;;;23.10;25.90;;;;;;2234487;62;20454;-65
2024/03/30 04:44:09;0.00;0.00;0.62;0.00;0.00;0.62;3.20;2.40;;;23.20;26.00;;;;;;2235855;62;20355;-65
2024/03/30 04:46:35;0.00;0.00;0.62;0.00;0.00;0.62;4.37;2.73;;;23.20;26.00;;;;;;2231709;62;20825;-65
2024/03/30 04:49:01;0.00;0.00;0.62;0.00;0.00;0.62;2.73;2.03;;;23.20;26.00;;;;;;2232271;62;20404;-65
2024/03/30 04:51:27;0.00;0.00;0.62;0.00;0.00;0.62;3.07;1.77;;;23.20;26.00;;;;;;2231812;62;20357;-66
2024/03/30 04:53:53;0.00;0.00;0.62;0.00;0.00;0.62;3.50;2.20;;;23.10;25.90;;;;;;2231641;62;20383;-65
2024/03/30 04:56:19;0.00;0.00;0.62;0.00;0.00;0.62;3.00;2.20;;;23.20;26.50;;;;;;2231918;62;20360;-65
2024/03/30 04:58:47;0.00;0.00;0.62;0.00;0.00;0.62;3.63;2.43;;;23.20;26.00;;;;;;2231616;62;20411;-65
2024/03/30 05:01:13;0.00;0.00;0.62;0.00;0.00;0.62;3.40;2.30;;;23.10;25.90;;;;;;2231167;62;20376;-65
2024/03/30 05:03:39;0.00;0.00;0.62;0.00;0.00;0.62;2.73;2.00;;;23.20;26.00;;;;;;2232088;62;20399;-65
2024/03/30 05:06:06;0.00;0.00;0.62;0.00;0.00;0.62;2.80;2.13;;;23.10;25.90;;;;;;2231636;62;20837;-65
2024/03/30 05:08:33;0.00;0.00;0.62;0.00;0.00;0.62;3.33;2.20;;;23.20;26.00;;;;;;2231355;62;20483;-66
2024/03/30 05:11:00;0.00;0.00;0.62;0.00;0.00;0.62;2.90;2.20;;;23.20;26.00;;;;;;2232143;62;20363;-65
2024/03/30 05:13:26;0.00;0.00;0.62;0.00;0.00;0.62;3.27;2.57;;;23.10;25.90;;;;;;2231846;62;20367;-65
2024/03/30 05:15:54;0.00;0.00;0.62;0.00;0.00;0.62;2.93;2.37;;;23.10;25.90;;;;;;2231317;62;20388;-65
2024/03/30 05:18:23;0.00;0.00;0.62;0.00;0.00;0.62;3.43;2.33;;;23.10;25.90;;;;;;2232091;62;20391;-65
2024/03/30 05:20:57;0.00;0.00;0.62;0.00;0.00;0.62;3.77;2.40;;;23.10;25.90;;;;;;2231866;62;20407;-65
2024/03/30 05:23:26;0.00;0.00;0.62;0.00;0.00;0.62;4.30;2.90;;;23.10;25.90;;;;;;2231679;62;20375;-65
2024/03/30 05:25:53;0.00;0.00;0.62;0.00;0.00;0.62;3.80;2.77;;;23.10;25.90;;;;;;2231957;62;20360;-65
2024/03/30 05:28:21;0.00;0.00;0.62;0.00;0.00;0.62;3.33;2.60;;;23.10;25.90;;;;;;2231948;62;20537;-67
2024/03/30 05:30:49;0.00;0.00;0.62;0.00;0.00;0.62;3.47;2.47;;;23.10;25.90;;;;;;2231452;62;20364;-66
2024/03/30 05:33:18;0.00;0.00;0.62;0.00;0.00;0.62;3.50;2.60;;;23.20;26.00;;;;;;2232002;62;20360;-67
2024/03/30 05:35:46;0.00;0.00;0.62;0.00;0.00;0.62;5.00;3.73;;;23.10;25.90;;;;;;2231680;62;20907;-63
2024/03/30 05:38:13;0.00;0.00;0.62;0.00;0.00;0.62;4.70;2.90;;;23.10;25.90;;;;;;2231357;62;20790;-67
2024/03/30 05:40:39;0.00;0.00;0.62;0.00;0.00;0.62;4.37;3.30;;;23.10;25.90;;;;;;2232019;62;20364;-67
2024/03/30 05:43:06;0.00;0.00;0.62;0.00;0.00;0.62;5.30;3.37;;;23.10;26.00;;;;;;2231886;62;20364;-67
2024/03/30 05:45:33;0.00;0.00;0.62;0.00;0.00;0.62;4.17;3.20;;;23.10;25.90;;;;;;2230775;62;20361;-66
2024/03/30 05:47:59;0.00;0.00;0.62;0.00;0.00;0.62;4.20;3.10;;;23.10;25.90;;;;;;2231489;62;20820;-66
2024/03/30 05:50:29;0.00;0.00;0.62;0.00;0.00;0.62;3.93;2.70;;;23.10;25.90;;;;;;2229481;62;20360;-66
2024/03/30 05:52:55;0.00;0.00;0.62;0.00;0.00;0.62;4.27;3.07;;;23.10;25.90;;;;;;2231167;62;20380;-67
2024/03/30 05:55:22;0.00;0.00;0.62;0.00;0.00;0.62;4.60;3.27;;;23.10;25.90;;;;;;2232005;62;20420;-66
2024/03/30 05:57:48;0.00;0.00;0.62;0.00;0.00;0.62;4.20;3.30;;;23.10;25.90;;;;;;2231552;62;20376;-66
2024/03/30 06:00:15;0.00;0.00;0.62;0.00;0.00;0.62;4.70;3.47;;;23.10;25.90;;;;;;2231281;62;20789;-67
2024/03/30 06:02:45;0.00;0.00;0.62;0.00;0.00;0.62;4.00;3.10;;;23.10;25.90;;;;;;2231985;62;20443;-65
2024/03/30 06:05:13;0.00;0.00;0.62;0.00;0.00;0.62;4.80;3.60;;;23.10;25.90;;;;;;2231311;62;20361;-66
2024/03/30 06:07:41;0.00;0.00;0.62;0.00;0.00;0.62;3.97;3.10;;;23.10;25.90;;;;;;2230388;62;20925;-66
2024/03/30 06:10:09;0.00;0.00;0.62;0.00;0.00;0.62;5.10;3.80;;;23.10;26.50;;;;;;2231957;62;20586;-64
2024/03/30 06:12:36;0.00;0.00;0.62;0.00;0.00;0.62;5.40;3.97;;;23.10;25.90;;;;;;2231842;62;20875;-66
2024/03/30 06:15:03;0.00;0.00;0.62;0.00;0.00;0.62;4.47;3.90;;;23.10;25.90;;;;;;2231326;62;20396;-66
2024/03/30 06:17:29;0.00;0.00;0.62;0.00;0.00;0.62;4.13;3.40;;;23.10;25.90;;;;;;2231985;62;20383;-66
2024/03/30 06:19:57;0.00;0.00;0.62;0.00;0.00;0.62;4.10;3.17;;;23.10;25.90;;;;;;2231725;62;20367;-64
2024/03/30 06:22:26;0.00;0.00;0.62;0.00;0.00;0.62;4.37;3.73;;;23.10;26.00;;;;;;2231193;62;20368;-64
2024/03/30 06:24:54;0.00;0.00;0.62;0.00;0.00;0.62;6.60;4.00;;;23.10;25.90;;;;;;2231824;62;20349;-65
2024/03/30 06:27:20;0.00;0.00;0.62;0.00;0.00;0.62;4.70;3.47;;;23.10;25.90;;;;;;2231536;62;20467;-65
2024/03/30 06:29:46;0.00;0.00;0.62;0.00;0.00;0.62;5.37;3.70;;;23.10;25.90;;;;;;2231254;62;20352;-64
2024/03/30 06:32:12;0.00;0.00;0.62;0.00;0.00;0.62;4.83;3.63;;;23.10;26.50;;;;;;2231915;62;20370;-66
2024/03/30 06:34:39;0.00;0.00;0.62;0.00;0.00;0.62;5.37;3.60;;;23.10;26.00;;;;;;2231666;62;20380;-65
2024/03/30 06:37:05;0.00;0.00;0.62;0.00;0.00;0.62;5.90;4.40;;;23.10;25.90;;;;;;2231088;62;20544;-65
2024/03/30 06:43:41;0.00;0.00;0.62;0.00;0.00;0.62;4.63;3.87;;;23.10;25.90;;;;;;2231888;62;20415;-65
2024/03/30 06:45:04;0.00;0.00;0.62;0.00;0.00;0.62;4.57;4.07;;;23.20;26.00;;;;;;2231438;62;20447;-65
2024/03/30 06:47:30;0.00;0.00;0.62;0.00;0.00;0.62;4.90;4.00;;;23.10;25.90;;;;;;2230994;62;20391;-65
2024/03/30 06:49:56;0.00;0.00;0.62;0.00;0.00;0.62;4.60;3.53;;;23.10;25.90;;;;;;2232094;62;20400;-66
2024/03/30 06:52:22;0.00;0.00;0.62;0.00;0.00;0.62;4.13;3.63;;;23.10;25.90;;;;;;2232074;62;20800;-64
2024/03/30 06:54:48;0.00;0.00;0.62;0.00;0.00;0.62;4.40;3.50;;;23.10;25.90;;;;;;2231961;62;20372;-66
2024/03/30 06:57:14;0.00;0.00;0.62;0.00;0.00;0.62;5.33;4.07;;;23.10;25.90;;;;;;2232026;62;20471;-67
2024/03/30 06:59:42;0.00;0.00;0.62;0.00;0.00;0.62;4.33;3.20;;;23.10;26.00;;;;;;2231991;62;20370;-64
2024/03/30 07:02:08;0.00;0.00;0.62;0.00;0.00;0.62;4.30;3.40;;;23.10;25.90;;;;;;2232305;62;20872;-65
2024/03/30 07:04:34;0.00;0.00;0.62;0.00;0.00;0.62;4.90;3.20;;;23.10;25.90;;;;;;2232294;62;20356;-66
2024/03/30 07:07:03;0.00;0.00;0.62;0.00;0.00;0.62;4.73;3.80;;;23.20;26.00;;;;;;2231808;62;20459;-66
2024/03/30 07:09:29;0.00;0.00;0.62;0.00;0.00;0.62;4.23;3.60;;;23.20;26.00;;;;;;2232324;62;20459;-65
2024/03/30 07:11:56;0.00;0.00;0.62;0.00;0.00;0.62;4.20;3.13;;;23.10;25.90;;;;;;2232368;62;20367;-66
2024/03/30 07:14:22;0.00;0.00;0.62;0.00;0.00;0.62;4.43;3.50;;;23.20;26.00;;;;;;2231619;62;20918;-65
2024/03/30 07:16:49;0.00;0.00;0.62;0.00;0.00;0.62;4.33;3.60;;;23.20;26.00;;;;;;2232401;62;20488;-64
2024/03/30 07:19:16;0.00;0.00;0.62;0.00;0.00;0.62;4.70;3.57;;;23.20;26.00;;;;;;2231772;62;20451;-66
2024/03/30 07:21:42;0.00;0.00;0.62;0.00;0.00;0.62;4.10;3.50;;;23.20;26.00;;;;;;2231164;62;20367;-66
2024/03/30 07:24:08;0.00;0.00;0.62;0.00;0.00;0.62;4.80;3.70;;;23.20;26.00;;;;;;2232607;62;20360;-66
2024/03/30 07:26:34;0.00;0.00;0.62;0.00;0.00;0.62;3.90;3.40;;;23.20;26.00;;;;;;2232030;62;20779;-65
2024/03/30 07:29:00;0.00;0.00;0.62;0.00;0.00;0.62;4.80;3.67;;;23.20;26.00;;;;;;2231694;62;20398;-65
2024/03/30 07:31:26;0.00;0.00;0.62;0.00;0.00;0.62;5.03;3.83;;;23.20;26.00;;;;;;2232302;62;20898;-65
2024/03/30 07:33:54;0.00;0.00;0.62;0.00;0.00;0.62;5.60;3.60;;;23.20;26.10;;;;;;2232317;62;20364;-64
2024/03/30 07:36:20;0.00;0.00;0.62;0.00;0.00;0.62;5.33;3.63;;;23.20;26.00;;;;;;2231488;62;20384;-65
2024/03/30 07:38:46;0.00;0.00;0.62;0.00;0.00;0.62;5.43;4.03;;;23.10;26.00;;;;;;2232253;62;20903;-66
2024/03/30 07:41:12;0.00;0.00;0.62;0.00;0.00;0.62;4.73;3.43;;;23.20;26.00;;;;;;2232190;62;20370;-64
2024/03/30 07:43:38;0.00;0.00;0.62;0.00;0.00;0.62;4.50;3.50;;;23.20;26.10;;;;;;2231540;62;20369;-65
2024/03/30 07:46:05;0.00;0.00;0.62;0.00;0.00;0.62;3.80;3.10;;;23.20;26.00;;;;;;2232147;62;20440;-64
2024/03/30 07:48:31;0.00;0.00;0.62;0.00;0.00;0.62;4.67;3.60;;;23.20;26.10;;;;;;2232219;62;20380;-64
2024/03/30 07:50:58;0.00;0.00;0.62;0.00;0.00;0.62;4.47;3.47;;;23.10;26.00;;;;;;2231635;62;20367;-64
2024/03/30 07:53:25;0.00;0.00;0.62;0.00;0.00;0.62;4.17;3.30;;;23.20;26.10;;;;;;2232292;62;20424;-64
2024/03/30 07:55:52;0.00;0.00;0.62;0.00;0.00;0.62;5.70;4.27;;;23.10;26.00;;;;;;2231993;62;20427;-64
2024/03/30 07:58:18;0.00;0.00;0.62;0.00;0.00;0.62;5.90;4.30;;;23.20;26.10;;;;;;2231618;62;20388;-64
2024/03/30 08:00:44;0.00;0.00;0.62;0.00;0.00;0.62;4.50;3.30;;;23.20;26.10;;;;;;2232142;62;20360;-64
2024/03/30 08:03:10;0.00;0.00;0.62;0.00;0.00;0.62;7.00;4.63;;;23.20;26.10;;;;;;2232168;62;20364;-64
2024/03/30 08:05:38;0.00;0.00;0.62;0.00;0.00;0.62;6.13;4.50;;;23.20;26.10;;;;;;2231608;62;20361;-65
2024/03/30 08:08:06;0.00;0.00;0.62;0.00;0.00;0.62;6.33;3.80;;;23.20;26.10;;;;;;2232007;62;20902;-65
2024/03/30 08:10:33;0.00;0.00;0.62;0.00;0.00;0.62;5.23;4.63;;;23.20;26.70;;;;;;2232037;62;20372;-66
2024/03/30 08:12:59;0.00;0.00;0.62;0.00;0.00;0.62;5.37;4.63;;;23.20;26.20;;;;;;2231741;62;20368;-65
2024/03/30 08:15:25;0.00;0.00;0.62;0.00;0.00;0.62;5.00;3.77;;;23.20;26.20;;;;;;2232165;62;20399;-65
2024/03/30 08:17:51;0.00;0.00;0.62;0.00;0.00;0.62;5.47;4.03;;;23.20;26.20;;;;;;2231990;62;20380;-65
2024/03/30 08:20:17;0.00;0.00;0.62;0.00;0.00;0.62;4.73;4.10;;;23.20;26.20;;;;;;2231525;62;20773;-64
2024/03/30 08:22:46;0.00;0.00;0.62;0.00;0.00;0.62;5.33;4.43;;;23.20;26.20;;;;;;2232120;62;20363;-64
2024/03/30 08:25:13;0.00;0.00;0.62;0.00;0.00;0.62;4.60;3.97;;;23.20;26.20;;;;;;2231964;62;20886;-64
2024/03/30 08:27:39;0.00;0.00;0.62;0.00;0.00;0.62;4.57;3.93;;;23.20;26.20;;;;;;2231311;62;20801;-65
2024/03/30 08:30:07;0.00;0.00;0.62;0.00;0.00;0.62;4.80;4.13;;;23.20;26.20;;;;;;2232083;62;20356;-64
2024/03/30 08:32:33;0.00;0.00;0.62;0.00;0.00;0.62;6.00;5.30;;;23.20;26.20;;;;;;2232136;62;20361;-68
2024/03/30 08:34:59;0.00;0.00;0.62;0.00;0.00;0.62;4.93;4.20;;;23.20;26.20;;;;;;2231454;62;20398;-66
2024/03/30 08:37:25;0.00;0.00;0.62;0.00;0.00;0.62;5.70;4.47;;;23.20;26.20;;;;;;2231947;62;20383;-66
2024/03/30 08:39:51;0.00;0.00;0.62;0.00;0.00;0.62;5.30;4.80;;;23.20;26.20;;;;;;2231922;62;20782;-65
2024/03/30 08:42:19;0.00;0.00;0.62;0.00;0.00;0.62;9.93;4.47;;;23.20;26.20;;;;;;2231547;62;20360;-65
2024/03/30 08:44:45;0.00;0.00;0.62;0.00;0.00;0.62;5.07;4.30;;;23.30;26.30;;;;;;2231535;62;20638;-64
2024/03/30 08:47:11;0.00;0.00;0.62;0.00;0.00;0.62;5.20;4.30;;;23.30;26.30;;;;;;2231873;62;20525;-65
2024/03/30 08:49:37;0.00;0.00;0.62;0.00;0.00;0.62;5.70;4.27;;;23.30;26.30;;;;;;2231497;62;20978;-66
2024/03/30 08:52:05;0.00;0.00;0.62;0.00;0.00;0.62;5.73;3.93;;;23.30;26.30;;;;;;2232223;62;20357;-66
2024/03/30 08:54:31;0.00;0.00;0.62;0.00;0.00;0.62;6.30;4.60;;;23.30;26.30;;;;;;2231802;62;20396;-64
2024/03/30 08:56:57;0.00;0.00;0.62;0.00;0.00;0.62;4.60;3.73;;;23.30;26.40;;;;;;2231337;62;20417;-64
2024/03/30 08:59:24;0.00;0.00;0.62;0.00;0.00;0.62;4.27;3.80;;;23.30;26.30;;;;;;2232355;62;20581;-64
2024/03/30 09:01:50;0.00;0.00;0.62;0.00;0.00;0.62;5.63;4.77;;;23.30;26.30;;;;;;2231960;62;20790;-64
2024/03/30 09:04:18;0.00;0.00;0.62;0.00;0.00;0.62;5.27;3.90;;;23.30;26.40;;;;;;2231482;62;20769;-64
2024/03/30 09:06:44;0.00;0.00;0.62;0.00;0.00;0.62;5.90;3.90;;;23.30;26.40;;;;;;2231918;62;20395;-66
2024/03/30 09:09:11;0.00;0.00;0.62;0.00;0.00;0.62;5.00;4.33;;;23.30;26.30;;;;;;2231853;62;20368;-65
2024/03/30 09:11:37;0.00;0.00;0.62;0.00;0.00;0.62;6.43;4.50;;;23.30;26.40;;;;;;2231252;62;20371;-64
2024/03/30 09:14:04;0.00;0.00;0.62;0.00;0.00;0.62;5.60;4.27;;;23.30;26.40;;;;;;2231974;62;20498;-66
2024/03/30 09:16:31;0.00;0.00;0.62;0.00;0.00;0.62;4.67;3.80;;;23.30;26.40;;;;;;2231690;62;20806;-66
2024/03/30 09:18:57;0.00;0.00;0.62;0.00;0.00;0.62;5.63;3.93;;;23.30;26.40;;;;;;2231421;62;20372;-64
2024/03/30 09:21:23;0.00;0.00;0.62;0.00;0.00;0.62;5.80;3.80;;;23.30;26.40;;;;;;2232190;62;20375;-65
2024/03/30 09:23:49;0.00;0.00;0.62;0.00;0.00;0.62;4.30;3.60;;;23.30;26.40;;;;;;2231940;62;20751;-65
2024/03/30 09:26:15;0.00;0.00;0.62;0.00;0.00;0.62;4.27;3.70;;;23.30;26.50;;;;;;2231080;62;20360;-65
2024/03/30 09:28:42;0.00;0.00;0.62;0.00;0.00;0.62;6.80;4.50;;;23.30;26.40;;;;;;2231963;62;20781;-65
2024/03/30 09:31:08;0.00;0.00;0.62;0.00;0.00;0.62;5.10;3.90;;;23.40;26.50;;;;;;2231852;62;20635;-65
2024/03/30 09:33:35;0.00;0.00;0.62;0.00;0.00;0.62;6.53;4.40;;;23.40;26.50;;;;;;2231333;62;20436;-65
2024/03/30 09:36:08;0.00;0.00;0.62;0.00;0.00;0.62;5.07;3.83;;;23.40;26.50;;;;;;2231113;62;20400;-65
2024/03/30 09:38:34;0.00;0.00;0.62;0.00;0.00;0.62;5.43;3.57;;;23.40;26.50;;;;;;2231810;62;20410;-65
2024/03/30 09:41:04;0.00;0.00;0.62;0.00;0.00;0.62;4.30;3.30;;;23.40;26.50;;;;;;2231492;62;20364;-65
2024/03/30 09:43:30;0.00;0.00;0.62;0.00;0.00;0.62;4.20;3.10;;;23.30;26.40;;;;;;2231833;62;20361;-65